Time;durP1;ratioP1;P1;durP2;ratioP2;P2;SDS_P1;SDS_P2;PMS_P1;PMS_P2;Temp;Humidity;BMP_temperature;BMP_pressure;BME280_temperature;BME280_humidity;BME280_pressure;Samples;Min_cycle;Max_cycle;Signal;HPM_P1;HPM_P2
2023/04/02 00:01:01;;;;;;;11.98;1.88;;;;;;;;;;5088892;28;20048;-77
2023/04/02 00:04:07;;;;;;;13.45;1.58;;;;;;;;;;5088439;28;20051;-76
2023/04/02 00:06:43;;;;;;;18.10;2.28;;;;;;;;;;5088649;28;20043;-79
2023/04/02 00:09:14;;;;;;;18.30;2.67;;;;;;;;;;5088491;28;20098;-79
2023/04/02 00:11:48;;;;;;;21.30;2.60;;;;;;;;;;5088680;28;20431;-78
2023/04/02 00:14:33;;;;;;;18.73;2.50;;;;;;;;;;5088511;28;20040;-75
2023/04/02 00:17:05;;;;;;;16.98;2.35;;;;;;;;;;5088000;28;20047;-78
2023/04/02 00:19:44;;;;;;;16.85;2.75;;;;;;;;;;5087873;28;20055;-76
2023/04/02 00:22:32;;;;;;;16.42;2.95;;;;;;;;;;5087927;28;20059;-77
2023/04/02 00:25:14;;;;;;;18.30;2.50;;;;;;;;;;5092099;28;20601;-78
2023/04/02 00:27:45;;;;;;;14.27;2.25;;;;;;;;;;5098005;28;20032;-75
2023/04/02 00:30:16;;;;;;;13.02;2.35;;;;;;;;;;5095873;28;20040;-75
2023/04/02 00:32:47;;;;;;;21.83;3.00;;;;;;;;;;5076084;28;20040;-79
2023/04/02 00:35:25;;;;;;;32.50;3.58;;;;;;;;;;5090262;28;20044;-79
2023/04/02 00:37:56;;;;;;;24.38;3.50;;;;;;;;;;5097397;28;20036;-75
2023/04/02 00:40:30;;;;;;;15.20;2.85;;;;;;;;;;5095493;28;20044;-79
2023/04/02 00:43:03;;;;;;;22.55;3.45;;;;;;;;;;5080470;28;20058;-78
2023/04/02 00:45:37;;;;;;;27.50;3.90;;;;;;;;;;5107565;28;20055;-76
2023/04/02 00:48:37;;;;;;;17.02;3.50;;;;;;;;;;5098330;28;20038;-78
2023/04/02 00:51:34;;;;;;;14.50;2.47;;;;;;;;;;5078613;28;20054;-77
2023/04/02 00:54:09;;;;;;;15.35;3.70;;;;;;;;;;5074699;28;20043;-76
2023/04/02 00:56:44;;;;;;;17.95;2.17;;;;;;;;;;5098021;28;20039;-77
2023/04/02 00:59:25;;;;;;;14.35;2.05;;;;;;;;;;5096832;28;20047;-77
2023/04/02 01:02:16;;;;;;;34.72;3.17;;;;;;;;;;5077905;28;20048;-77
2023/04/02 01:05:14;;;;;;;17.08;3.30;;;;;;;;;;5097797;28;20039;-76
2023/04/02 01:08:16;;;;;;;14.68;2.15;;;;;;;;;;5083553;28;20052;-78
2023/04/02 01:11:01;;;;;;;14.38;2.60;;;;;;;;;;5098700;28;20036;-77
2023/04/02 01:13:37;;;;;;;14.60;3.55;;;;;;;;;;5096694;28;20494;-76
2023/04/02 01:16:28;;;;;;;11.82;2.47;;;;;;;;;;5096314;28;20446;-78
2023/04/02 01:19:34;;;;;;;11.18;2.50;;;;;;;;;;5096034;28;20062;-78
2023/04/02 01:22:23;;;;;;;18.10;3.33;;;;;;;;;;5097022;28;20048;-80
2023/04/02 01:24:58;;;;;;;15.93;3.88;;;;;;;;;;5097762;28;20395;-80
2023/04/02 01:27:38;;;;;;;9.75;2.88;;;;;;;;;;5077235;28;20051;-80
2023/04/02 01:30:11;;;;;;;12.00;2.92;;;;;;;;;;5079037;28;20063;-76
2023/04/02 01:32:42;;;;;;;10.93;2.97;;;;;;;;;;5078335;28;20044;-77
2023/04/02 01:35:13;;;;;;;16.77;2.75;;;;;;;;;;5078152;28;20048;-77
2023/04/02 01:38:24;;;;;;;18.55;3.05;;;;;;;;;;5096166;28;20054;-76
2023/04/02 01:41:13;;;;;;;10.25;2.75;;;;;;;;;;5081599;28;20750;-79
2023/04/02 01:44:00;;;;;;;7.47;2.20;;;;;;;;;;5097385;28;20482;-78
2023/04/02 01:46:32;;;;;;;11.60;2.80;;;;;;;;;;5077770;28;20502;-77
2023/04/02 01:49:13;;;;;;;9.88;2.72;;;;;;;;;;5076370;28;20052;-79
2023/04/02 01:51:46;;;;;;;16.27;3.25;;;;;;;;;;5095632;28;20057;-77
2023/04/02 01:54:20;;;;;;;11.65;3.00;;;;;;;;;;5076906;28;20422;-77
2023/04/02 01:56:51;;;;;;;17.50;2.92;;;;;;;;;;5079417;28;20048;-78
2023/04/02 01:59:25;;;;;;;10.48;2.75;;;;;;;;;;5068699;28;20510;-80
2023/04/02 02:02:05;;;;;;;7.45;2.30;;;;;;;;;;5068237;28;20044;-77
2023/04/02 02:04:39;;;;;;;14.50;2.85;;;;;;;;;;5086226;28;20059;-78
2023/04/02 02:07:19;;;;;;;12.63;2.65;;;;;;;;;;5051288;28;20063;-76
2023/04/02 02:09:55;;;;;;;9.85;2.72;;;;;;;;;;5073155;28;20569;-75
2023/04/02 02:12:26;;;;;;;9.50;2.60;;;;;;;;;;5087696;28;20056;-77
2023/04/02 02:14:57;;;;;;;9.50;2.35;;;;;;;;;;5105893;28;20498;-76
2023/04/02 02:17:33;;;;;;;10.70;2.88;;;;;;;;;;5106488;28;20529;-76
2023/04/02 02:20:09;;;;;;;13.50;2.72;;;;;;;;;;5106532;28;20058;-80
2023/04/02 02:22:43;;;;;;;;;;;;;;;;;;5107799;28;20043;-79
2023/04/02 02:25:21;;;;;;;10.57;2.30;;;;;;;;;;5107065;28;19927;-79
2023/04/02 02:28:13;;;;;;;11.18;2.08;;;;;;;;;;5087774;28;20056;-79
2023/04/02 02:30:46;;;;;;;12.93;2.30;;;;;;;;;;5087972;28;20059;-78
2023/04/02 02:33:25;;;;;;;14.63;2.67;;;;;;;;;;5087147;28;20413;-76
2023/04/02 02:36:02;;;;;;;8.52;2.78;;;;;;;;;;5087452;28;20526;-77
2023/04/02 02:39:00;;;;;;;13.68;2.67;;;;;;;;;;5087768;28;20044;-76
2023/04/02 02:41:40;;;;;;;8.35;2.55;;;;;;;;;;5105399;28;20057;-79
2023/04/02 02:44:18;;;;;;;8.32;2.30;;;;;;;;;;5090111;28;20137;-78
2023/04/02 02:46:54;;;;;;;7.78;2.47;;;;;;;;;;5108327;28;20055;-78
2023/04/02 02:49:32;;;;;;;;;;;;;;;;;;5089871;28;20075;-77
2023/04/02 02:52:13;;;;;;;8.73;2.45;;;;;;;;;;5123648;27;19923;-78
2023/04/02 02:55:17;;;;;;;14.93;2.55;;;;;;;;;;5089341;28;20058;-76
2023/04/02 02:58:05;;;;;;;11.68;2.65;;;;;;;;;;5089731;28;20529;-77
2023/04/02 03:00:44;;;;;;;19.88;2.65;;;;;;;;;;5091152;28;20513;-78
2023/04/02 03:03:23;;;;;;;11.70;2.53;;;;;;;;;;5109723;28;20048;-78
2023/04/02 03:06:04;;;;;;;14.57;2.88;;;;;;;;;;5091615;28;20592;-75
2023/04/02 03:09:06;;;;;;;23.13;2.65;;;;;;;;;;5091264;28;20055;-79
2023/04/02 03:12:07;;;;;;;12.32;2.35;;;;;;;;;;5059539;28;20044;-79
2023/04/02 03:14:43;;;;;;;10.07;3.05;;;;;;;;;;5091732;28;20051;-76
2023/04/02 03:17:32;;;;;;;6.18;2.42;;;;;;;;;;5091710;28;20543;-81
2023/04/02 03:20:27;;;;;;;14.35;2.53;;;;;;;;;;5090808;28;20043;-79
2023/04/02 03:23:02;;;;;;;7.80;2.58;;;;;;;;;;5109755;28;20043;-76
2023/04/02 03:25:42;;;;;;;10.15;2.40;;;;;;;;;;5090589;28;20067;-79
2023/04/02 03:28:18;;;;;;;12.75;2.97;;;;;;;;;;5090805;28;20056;-77
2023/04/02 03:30:59;;;;;;;13.75;2.50;;;;;;;;;;5090252;28;20063;-77
2023/04/02 03:33:41;;;;;;;14.45;2.55;;;;;;;;;;5090581;28;20062;-76
2023/04/02 03:36:17;;;;;;;9.00;2.80;;;;;;;;;;5109765;28;20043;-75
2023/04/02 03:38:59;;;;;;;9.98;2.35;;;;;;;;;;5090749;28;20055;-75
2023/04/02 03:41:44;;;;;;;11.45;2.30;;;;;;;;;;5090724;28;20055;-76
2023/04/02 03:44:40;;;;;;;10.85;3.22;;;;;;;;;;5090765;28;20062;-75
2023/04/02 03:47:20;;;;;;;14.05;3.47;;;;;;;;;;5110615;28;20036;-78
2023/04/02 03:50:26;;;;;;;12.63;2.95;;;;;;;;;;5111148;28;20051;-78
2023/04/02 03:53:02;;;;;;;15.30;2.33;;;;;;;;;;5090600;28;20056;-76
2023/04/02 03:55:36;;;;;;;13.48;3.00;;;;;;;;;;5108448;28;20638;-76
2023/04/02 03:58:29;;;;;;;14.52;2.97;;;;;;;;;;5090178;28;20055;-75
2023/04/02 04:01:16;;;;;;;13.93;2.53;;;;;;;;;;5090075;28;20048;-77
2023/04/02 04:03:53;;;;;;;20.27;3.33;;;;;;;;;;5090246;28;20059;-77
2023/04/02 04:06:27;;;;;;;9.70;2.47;;;;;;;;;;5090231;28;20059;-77
2023/04/02 04:09:04;;;;;;;13.55;2.72;;;;;;;;;;5090623;28;20056;-78
2023/04/02 04:11:38;;;;;;;15.82;3.00;;;;;;;;;;5109079;28;20058;-79
2023/04/02 04:14:13;;;;;;;14.13;3.30;;;;;;;;;;5089870;28;20410;-77
2023/04/02 04:17:14;;;;;;;10.65;3.35;;;;;;;;;;5090039;28;20050;-79
2023/04/02 04:19:59;;;;;;;9.25;2.90;;;;;;;;;;5090276;28;20054;-75
2023/04/02 04:22:31;;;;;;;16.80;3.15;;;;;;;;;;5089159;28;20054;-74
2023/04/02 04:25:29;;;;;;;12.25;3.30;;;;;;;;;;5089342;28;20055;-78
2023/04/02 04:28:46;;;;;;;9.82;2.80;;;;;;;;;;5089585;28;20047;-79
2023/04/02 04:31:40;;;;;;;15.60;3.00;;;;;;;;;;5094945;28;20178;-76
2023/04/02 04:34:15;;;;;;;14.63;2.25;;;;;;;;;;5108023;28;20035;-79
2023/04/02 04:37:08;;;;;;;15.82;2.85;;;;;;;;;;5089111;28;20055;-77
2023/04/02 04:39:44;;;;;;;23.77;3.22;;;;;;;;;;5122467;27;20052;-75
2023/04/02 04:42:33;;;;;;;18.23;3.17;;;;;;;;;;5089273;28;20520;-77
2023/04/02 04:45:21;;;;;;;11.60;3.20;;;;;;;;;;5089331;28;20055;-79
2023/04/02 04:48:13;;;;;;;16.30;3.20;;;;;;;;;;5088841;28;20048;-75
2023/04/02 04:51:15;;;;;;;15.50;3.17;;;;;;;;;;5073181;28;20418;-76
2023/04/02 04:53:49;;;;;;;16.27;2.50;;;;;;;;;;5089110;28;20056;-79
2023/04/02 04:56:27;;;;;;;12.70;2.75;;;;;;;;;;5089248;28;20055;-78
2023/04/02 04:59:40;;;;;;;10.00;2.40;;;;;;;;;;5088854;28;20063;-74
2023/04/02 05:02:23;;;;;;;19.35;2.97;;;;;;;;;;5089191;28;20044;-79
2023/04/02 05:04:56;;;;;;;13.32;2.38;;;;;;;;;;5072716;28;20059;-75
2023/04/02 05:07:35;;;;;;;10.52;2.47;;;;;;;;;;5107390;28;20059;-78
2023/04/02 05:10:26;;;;;;;13.60;3.13;;;;;;;;;;5088718;28;20062;-78
2023/04/02 05:13:24;;;;;;;16.33;3.38;;;;;;;;;;5088869;28;20047;-77
2023/04/02 05:16:17;;;;;;;13.13;2.88;;;;;;;;;;5088956;28;20062;-76
2023/04/02 05:19:05;;;;;;;8.65;2.70;;;;;;;;;;5107641;28;20047;-75
2023/04/02 05:22:11;;;;;;;13.23;2.90;;;;;;;;;;5088103;28;20163;-75
2023/04/02 05:24:52;;;;;;;19.15;3.05;;;;;;;;;;5088030;28;20060;-75
2023/04/02 05:27:41;;;;;;;11.65;2.72;;;;;;;;;;5088428;28;20048;-75
2023/04/02 05:30:28;;;;;;;16.13;3.10;;;;;;;;;;5088243;28;20047;-75
2023/04/02 05:33:27;;;;;;;15.60;2.95;;;;;;;;;;5088382;28;20055;-77
2023/04/02 05:36:05;;;;;;;10.38;3.25;;;;;;;;;;5088765;28;20383;-78
2023/04/02 05:38:46;;;;;;;12.95;2.85;;;;;;;;;;5088642;28;20048;-78
2023/04/02 05:41:35;;;;;;;14.90;2.90;;;;;;;;;;5072553;28;20062;-78
2023/04/02 05:44:15;;;;;;;12.40;3.15;;;;;;;;;;5105862;28;20418;-75
2023/04/02 05:47:01;;;;;;;15.27;3.50;;;;;;;;;;5107239;28;20361;-76
2023/04/02 05:49:40;;;;;;;10.25;3.35;;;;;;;;;;5088620;28;20532;-77
2023/04/02 05:52:24;;;;;;;16.50;3.08;;;;;;;;;;5087839;28;20051;-75
2023/04/02 05:55:02;;;;;;;16.77;3.70;;;;;;;;;;5088021;28;20058;-78
2023/04/02 05:57:41;;;;;;;17.20;3.97;;;;;;;;;;5088237;28;20062;-79
2023/04/02 06:00:39;;;;;;;9.77;2.63;;;;;;;;;;5074210;28;20069;-77
2023/04/02 06:03:47;;;;;;;14.90;4.65;;;;;;;;;;5087914;28;20556;-78
2023/04/02 06:06:42;;;;;;;18.90;5.15;;;;;;;;;;5076181;28;20612;-77
2023/04/02 06:09:27;;;;;;;12.48;4.32;;;;;;;;;;5106864;28;20051;-77
2023/04/02 06:12:24;;;;;;;12.65;4.07;;;;;;;;;;5087840;28;20052;-75
2023/04/02 06:14:55;;;;;;;17.83;4.82;;;;;;;;;;5086853;28;20070;-79
2023/04/02 06:17:32;;;;;;;14.07;5.35;;;;;;;;;;5089136;28;20548;-75
2023/04/02 06:20:05;;;;;;;16.20;5.72;;;;;;;;;;5111253;28;20044;-77
2023/04/02 06:22:43;;;;;;;14.88;5.25;;;;;;;;;;5092074;28;20048;-77
2023/04/02 06:25:20;;;;;;;12.13;4.60;;;;;;;;;;5092426;28;20051;-77
2023/04/02 06:27:54;;;;;;;10.25;4.35;;;;;;;;;;5091404;28;20051;-75
2023/04/02 06:30:30;;;;;;;16.42;4.25;;;;;;;;;;5091736;28;20055;-75
2023/04/02 06:33:03;;;;;;;16.75;4.68;;;;;;;;;;5091831;28;20532;-78
2023/04/02 06:35:45;;;;;;;15.00;4.95;;;;;;;;;;5091208;28;20047;-76
2023/04/02 06:38:26;;;;;;;11.18;4.85;;;;;;;;;;5091733;28;20048;-76
2023/04/02 06:41:14;;;;;;;19.52;6.22;;;;;;;;;;5087872;28;20146;-77
2023/04/02 06:43:55;;;;;;;11.95;5.40;;;;;;;;;;5088134;28;20039;-76
2023/04/02 06:47:19;;;;;;;13.82;4.20;;;;;;;;;;5026969;28;20053;-74
2023/04/02 06:50:13;;;;;;;14.70;3.83;;;;;;;;;;5010530;28;20053;-78
2023/04/02 06:53:18;;;;;;;15.95;4.15;;;;;;;;;;5088236;28;20518;-77
2023/04/02 06:56:11;;;;;;;10.73;4.55;;;;;;;;;;5087798;28;20059;-76
2023/04/02 06:58:41;;;;;;;16.33;4.70;;;;;;;;;;5088337;28;20422;-78
2023/04/02 07:01:28;;;;;;;10.65;4.38;;;;;;;;;;5087850;28;20056;-75
2023/04/02 07:04:00;;;;;;;12.98;4.20;;;;;;;;;;5088420;28;20522;-77
2023/04/02 07:06:37;;;;;;;15.60;4.38;;;;;;;;;;5087680;28;20048;-78
2023/04/02 07:09:10;;;;;;;14.23;4.05;;;;;;;;;;5087023;28;20063;-79
2023/04/02 07:11:44;;;;;;;13.32;4.72;;;;;;;;;;5071837;28;20485;-78
2023/04/02 07:14:18;;;;;;;12.30;4.40;;;;;;;;;;5104755;28;20052;-74
2023/04/02 07:16:50;;;;;;;14.30;5.03;;;;;;;;;;5087511;28;20044;-78
2023/04/02 07:19:22;;;;;;;8.98;4.75;;;;;;;;;;5087587;28;20059;-80
2023/04/02 07:21:56;;;;;;;13.00;4.55;;;;;;;;;;5086330;28;20051;-78
2023/04/02 07:24:32;;;;;;;19.02;4.97;;;;;;;;;;5086953;28;20059;-75
2023/04/02 07:27:04;;;;;;;19.42;4.15;;;;;;;;;;5089717;28;20044;-75
2023/04/02 07:29:36;;;;;;;13.73;4.72;;;;;;;;;;5085705;28;20054;-76
2023/04/02 07:32:07;;;;;;;15.20;4.05;;;;;;;;;;5090044;28;20078;-75
2023/04/02 07:34:39;;;;;;;16.52;4.72;;;;;;;;;;5088594;28;20055;-78
2023/04/02 07:37:15;;;;;;;11.60;4.50;;;;;;;;;;5088989;28;20044;-79
2023/04/02 07:39:46;;;;;;;11.73;4.97;;;;;;;;;;5090467;28;20073;-75
2023/04/02 07:42:16;;;;;;;25.88;5.53;;;;;;;;;;5109216;28;20055;-79
2023/04/02 07:44:46;;;;;;;9.57;4.68;;;;;;;;;;5109192;28;20496;-74
2023/04/02 07:47:16;;;;;;;15.88;5.30;;;;;;;;;;5108962;28;20046;-78
2023/04/02 07:49:46;;;;;;;14.15;5.50;;;;;;;;;;5109653;28;20346;-78
2023/04/02 07:52:16;;;;;;;14.13;4.95;;;;;;;;;;5108761;28;20078;-78
2023/04/02 07:54:46;;;;;;;14.13;5.07;;;;;;;;;;5109044;28;20046;-77
2023/04/02 07:57:17;;;;;;;11.75;5.38;;;;;;;;;;5107903;28;20532;-77
2023/04/02 07:59:47;;;;;;;15.52;4.88;;;;;;;;;;5108740;28;20532;-79
2023/04/02 08:02:21;;;;;;;12.65;5.78;;;;;;;;;;5109541;28;20482;-76
2023/04/02 08:04:53;;;;;;;13.18;5.13;;;;;;;;;;5092121;28;20055;-75
2023/04/02 08:07:23;;;;;;;21.27;5.05;;;;;;;;;;5108837;28;20043;-79
2023/04/02 08:09:53;;;;;;;12.57;5.47;;;;;;;;;;5108544;28;20054;-77
2023/04/02 08:12:24;;;;;;;18.13;5.93;;;;;;;;;;5108912;28;20406;-76
2023/04/02 08:14:55;;;;;;;13.30;5.32;;;;;;;;;;5108698;28;20048;-77
2023/04/02 08:17:30;;;;;;;14.23;5.40;;;;;;;;;;5089429;28;20052;-78
2023/04/02 08:20:00;;;;;;;14.43;4.85;;;;;;;;;;5108339;28;20071;-77
2023/04/02 08:22:31;;;;;;;14.13;4.93;;;;;;;;;;5108104;28;20486;-78
2023/04/02 08:25:02;;;;;;;10.38;5.15;;;;;;;;;;5108534;28;20059;-77
2023/04/02 08:27:32;;;;;;;11.00;4.93;;;;;;;;;;5108493;28;20059;-75
2023/04/02 08:30:05;;;;;;;14.10;4.63;;;;;;;;;;5108530;28;20051;-76
2023/04/02 08:32:35;;;;;;;12.07;4.38;;;;;;;;;;5108502;28;20043;-77
2023/04/02 08:35:08;;;;;;;12.77;4.18;;;;;;;;;;5108634;28;20402;-77
2023/04/02 08:37:40;;;;;;;13.68;5.43;;;;;;;;;;5108011;28;20035;-76
2023/04/02 08:40:32;;;;;;;14.57;4.40;;;;;;;;;;5107455;28;20062;-75
2023/04/02 08:43:37;;;;;;;15.52;5.32;;;;;;;;;;5108215;28;20046;-75
2023/04/02 08:46:13;;;;;;;9.27;5.18;;;;;;;;;;5108148;28;20047;-76
2023/04/02 08:48:50;;;;;;;11.65;4.57;;;;;;;;;;5107297;28;20039;-78
2023/04/02 08:51:30;;;;;;;12.43;4.45;;;;;;;;;;5107867;28;20051;-81
2023/04/02 08:54:12;;;;;;;14.77;4.80;;;;;;;;;;5107929;28;20082;-77
2023/04/02 08:56:49;;;;;;;12.90;4.50;;;;;;;;;;5107820;28;20054;-77
2023/04/02 08:59:39;;;;;;;15.98;5.00;;;;;;;;;;5108505;28;20052;-75
2023/04/02 09:02:29;;;;;;;14.98;5.07;;;;;;;;;;5089842;28;20044;-74
2023/04/02 09:05:03;;;;;;;18.05;5.32;;;;;;;;;;5107820;28;20055;-75
2023/04/02 09:07:35;;;;;;;10.93;4.80;;;;;;;;;;5108098;28;20054;-75
2023/04/02 09:10:06;;;;;;;16.15;4.70;;;;;;;;;;5089807;28;20043;-75
2023/04/02 09:12:36;;;;;;;17.30;5.18;;;;;;;;;;5107876;28;20051;-79
2023/04/02 09:15:33;;;;;;;14.68;4.95;;;;;;;;;;5107908;28;20051;-78
2023/04/02 09:18:17;;;;;;;11.65;4.68;;;;;;;;;;5107723;28;20540;-77
2023/04/02 09:20:49;;;;;;;15.77;4.15;;;;;;;;;;5107570;28;20044;-75
2023/04/02 09:23:22;;;;;;;16.38;4.25;;;;;;;;;;5107291;28;20052;-77
2023/04/02 09:25:54;;;;;;;14.20;4.85;;;;;;;;;;5107202;28;20054;-78
2023/04/02 09:28:33;;;;;;;15.07;4.80;;;;;;;;;;5108135;28;20520;-73
2023/04/02 09:31:17;;;;;;;10.65;4.35;;;;;;;;;;5107739;28;20059;-79
2023/04/02 09:33:50;;;;;;;11.05;3.22;;;;;;;;;;5107146;28;20405;-77
2023/04/02 09:36:38;;;;;;;12.25;3.53;;;;;;;;;;5108176;28;20046;-78
2023/04/02 09:39:25;;;;;;;12.98;3.70;;;;;;;;;;5107399;28;20048;-77
2023/04/02 09:41:55;;;;;;;14.60;3.78;;;;;;;;;;5089476;28;20434;-75
2023/04/02 09:44:33;;;;;;;9.73;3.30;;;;;;;;;;5107396;28;20047;-75
2023/04/02 09:47:09;;;;;;;13.02;3.83;;;;;;;;;;5107009;28;20055;-74
2023/04/02 09:49:40;;;;;;;16.40;4.20;;;;;;;;;;5107047;28;20074;-74
2023/04/02 09:52:19;;;;;;;14.15;3.53;;;;;;;;;;5105860;28;20524;-76
2023/04/02 09:55:17;;;;;;;9.82;4.00;;;;;;;;;;5107490;28;20055;-75
2023/04/02 09:57:49;;;;;;;10.43;4.15;;;;;;;;;;5108087;28;20067;-77
2023/04/02 10:00:28;;;;;;;12.35;4.25;;;;;;;;;;5107310;28;20410;-75
2023/04/02 10:03:16;;;;;;;13.70;3.13;;;;;;;;;;5106877;28;20047;-76
2023/04/02 10:05:48;;;;;;;14.35;4.22;;;;;;;;;;5088268;28;20421;-74
2023/04/02 10:08:28;;;;;;;12.45;3.50;;;;;;;;;;5106960;28;20047;-75
2023/04/02 10:11:30;;;;;;;10.88;4.15;;;;;;;;;;5106950;28;20047;-77
2023/04/02 10:14:44;;;;;;;10.55;3.55;;;;;;;;;;5106694;28;20044;-75
2023/04/02 10:17:21;;;;;;;13.68;3.65;;;;;;;;;;5087234;28;20055;-76
2023/04/02 10:19:55;;;;;;;10.07;3.42;;;;;;;;;;5107083;28;20047;-75
2023/04/02 10:22:30;;;;;;;16.95;4.05;;;;;;;;;;5107370;28;20054;-76
2023/04/02 10:25:00;;;;;;;15.55;3.92;;;;;;;;;;5107494;28;20066;-78
2023/04/02 10:27:44;;;;;;;14.73;3.58;;;;;;;;;;5106935;28;20047;-76
2023/04/02 10:30:26;;;;;;;11.93;3.28;;;;;;;;;;5106977;28;20050;-79
2023/04/02 10:33:32;;;;;;;14.07;3.60;;;;;;;;;;5106993;28;20048;-77
2023/04/02 10:36:35;;;;;;;9.73;3.05;;;;;;;;;;5095232;28;20063;-77
2023/04/02 10:39:40;;;;;;;12.80;2.97;;;;;;;;;;5106792;28;20058;-77
2023/04/02 10:42:33;;;;;;;7.68;2.88;;;;;;;;;;5046428;28;20055;-80
2023/04/02 10:45:21;;;;;;;11.02;3.22;;;;;;;;;;5106342;28;20040;-77
2023/04/02 10:48:01;;;;;;;10.30;3.10;;;;;;;;;;5106696;28;20051;-76
2023/04/02 10:50:58;;;;;;;10.98;3.03;;;;;;;;;;5087973;28;20383;-75
2023/04/02 10:53:38;;;;;;;11.80;3.10;;;;;;;;;;5106843;28;20047;-79
2023/04/02 10:56:12;;;;;;;8.32;2.65;;;;;;;;;;5107105;28;20042;-77
2023/04/02 10:59:02;;;;;;;12.43;2.42;;;;;;;;;;5105575;28;20044;-79
2023/04/02 11:01:35;;;;;;;9.13;2.78;;;;;;;;;;5086940;28;20054;-77
2023/04/02 11:04:18;;;;;;;9.07;2.70;;;;;;;;;;5108604;28;20040;-78
2023/04/02 11:07:24;;;;;;;13.05;2.85;;;;;;;;;;5109714;28;20055;-76
2023/04/02 11:09:58;;;;;;;14.23;3.03;;;;;;;;;;5069048;28;20043;-79
2023/04/02 11:12:42;;;;;;;19.08;3.33;;;;;;;;;;5109766;28;20040;-78
2023/04/02 11:15:19;;;;;;;9.32;2.90;;;;;;;;;;5109797;28;20047;-77
2023/04/02 11:17:50;;;;;;;9.25;3.60;;;;;;;;;;5109928;28;20046;-76
2023/04/02 11:20:59;;;;;;;10.23;3.05;;;;;;;;;;5111014;28;20047;-79
2023/04/02 11:23:32;;;;;;;11.60;3.40;;;;;;;;;;5110868;28;20044;-78
2023/04/02 11:26:47;;;;;;;9.40;2.88;;;;;;;;;;5110327;28;20413;-76
2023/04/02 11:29:27;;;;;;;9.55;3.15;;;;;;;;;;5108690;28;20060;-79
2023/04/02 11:32:24;;;;;;;13.25;3.85;;;;;;;;;;5110091;28;20047;-78
2023/04/02 11:34:54;;;;;;;11.85;3.40;;;;;;;;;;5109293;28;20047;-77
2023/04/02 11:37:45;;;;;;;8.30;3.50;;;;;;;;;;5109840;28;20059;-79
2023/04/02 11:40:15;;;;;;;13.88;3.45;;;;;;;;;;5109461;28;20059;-76
2023/04/02 11:42:48;;;;;;;12.00;3.72;;;;;;;;;;5110279;28;20066;-77
2023/04/02 11:45:27;;;;;;;13.30;4.53;;;;;;;;;;5109521;28;20051;-78
2023/04/02 11:48:00;;;;;;;10.00;3.47;;;;;;;;;;5092285;28;20047;-77
2023/04/02 11:50:39;;;;;;;17.15;4.75;;;;;;;;;;5109104;28;20059;-78
2023/04/02 11:53:16;;;;;;;11.07;3.15;;;;;;;;;;5090008;28;20048;-76
2023/04/02 11:56:28;;;;;;;11.98;3.53;;;;;;;;;;5109093;28;20501;-79
2023/04/02 11:59:31;;;;;;;13.93;3.85;;;;;;;;;;5109480;28;20074;-81
2023/04/02 12:03:02;;;;;;;11.68;3.20;;;;;;;;;;5109140;28;20051;-80
2023/04/02 12:05:38;;;;;;;10.35;2.95;;;;;;;;;;5046216;28;20052;-76
2023/04/02 12:08:08;;;;;;;14.68;2.50;;;;;;;;;;5103479;28;20522;-80
2023/04/02 12:10:57;;;;;;;11.30;2.50;;;;;;;;;;5110682;28;20039;-79
2023/04/02 12:13:40;;;;;;;17.90;2.58;;;;;;;;;;5109821;28;20055;-77
2023/04/02 12:16:14;;;;;;;8.60;2.30;;;;;;;;;;5091823;28;20040;-79
2023/04/02 12:18:53;;;;;;;9.95;2.80;;;;;;;;;;5109946;28;20039;-77
2023/04/02 12:21:26;;;;;;;7.82;2.30;;;;;;;;;;5109334;28;20411;-78
2023/04/02 12:23:59;;;;;;;12.27;2.22;;;;;;;;;;5108990;28;20035;-76
2023/04/02 12:26:36;;;;;;;11.52;2.50;;;;;;;;;;5109044;28;20501;-77
2023/04/02 12:29:25;;;;;;;14.90;2.83;;;;;;;;;;5108283;28;20047;-79
2023/04/02 12:31:58;;;;;;;10.77;2.42;;;;;;;;;;5109012;28;20506;-75
2023/04/02 12:34:30;;;;;;;10.05;2.47;;;;;;;;;;5089614;28;20065;-77
2023/04/02 12:37:03;;;;;;;6.97;2.00;;;;;;;;;;5110139;28;20043;-78
2023/04/02 12:39:34;;;;;;;11.20;2.53;;;;;;;;;;5109362;28;20398;-78
2023/04/02 12:42:04;;;;;;;11.63;2.10;;;;;;;;;;5107386;28;20052;-79
2023/04/02 12:44:35;;;;;;;10.60;2.13;;;;;;;;;;5108558;28;20043;-80
2023/04/02 12:47:05;;;;;;;11.50;2.15;;;;;;;;;;5109141;28;20046;-80
2023/04/02 12:49:42;;;;;;;11.48;2.20;;;;;;;;;;5108557;28;20109;-77
2023/04/02 12:52:18;;;;;;;13.13;2.22;;;;;;;;;;5108689;28;20532;-78
2023/04/02 12:54:55;;;;;;;9.27;2.63;;;;;;;;;;5108388;28;20389;-78
2023/04/02 12:57:25;;;;;;;10.80;2.50;;;;;;;;;;5107917;28;20040;-77
2023/04/02 12:59:56;;;;;;;12.48;2.55;;;;;;;;;;5108202;28;20365;-80
2023/04/02 13:02:30;;;;;;;11.77;2.50;;;;;;;;;;5109332;28;20055;-76
2023/04/02 13:05:02;;;;;;;11.45;2.60;;;;;;;;;;5109695;28;20047;-79
2023/04/02 13:07:33;;;;;;;13.00;2.60;;;;;;;;;;5108857;28;20047;-75
2023/04/02 13:10:21;;;;;;;11.20;2.50;;;;;;;;;;5107946;28;20087;-75
2023/04/02 13:13:01;;;;;;;13.57;3.00;;;;;;;;;;5109288;28;20048;-78
2023/04/02 13:15:35;;;;;;;13.90;2.35;;;;;;;;;;5107823;28;20051;-82
2023/04/02 13:18:12;;;;;;;12.73;2.33;;;;;;;;;;5108570;28;20055;-79
2023/04/02 13:20:53;;;;;;;9.50;2.58;;;;;;;;;;5108168;28;20044;-77
2023/04/02 13:23:31;;;;;;;14.85;2.53;;;;;;;;;;5100422;28;20039;-77
2023/04/02 13:26:17;;;;;;;14.07;2.70;;;;;;;;;;5087288;28;20503;-74
2023/04/02 13:28:59;;;;;;;13.07;2.40;;;;;;;;;;5087991;28;20059;-76
2023/04/02 13:31:31;;;;;;;12.90;2.50;;;;;;;;;;5105256;28;20044;-78
2023/04/02 13:34:02;;;;;;;14.52;2.60;;;;;;;;;;5105847;28;20058;-79
2023/04/02 13:36:33;;;;;;;16.33;2.47;;;;;;;;;;5106663;28;20040;-77
2023/04/02 13:39:04;;;;;;;11.13;2.47;;;;;;;;;;5107845;28;20137;-78
2023/04/02 13:41:45;;;;;;;11.98;2.63;;;;;;;;;;5108467;28;20055;-79
2023/04/02 13:44:21;;;;;;;9.80;2.25;;;;;;;;;;5108134;28;20048;-79
2023/04/02 13:46:53;;;;;;;8.23;2.50;;;;;;;;;;5107223;28;20047;-76
2023/04/02 13:49:25;;;;;;;14.90;2.00;;;;;;;;;;5088192;28;20059;-77
2023/04/02 13:52:01;;;;;;;7.63;2.13;;;;;;;;;;5107212;28;20391;-81
2023/04/02 13:54:51;;;;;;;12.32;2.50;;;;;;;;;;5107406;28;20051;-77
2023/04/02 13:57:22;;;;;;;10.55;2.35;;;;;;;;;;5107727;28;20395;-77
2023/04/02 13:59:53;;;;;;;9.90;2.33;;;;;;;;;;5106808;28;20040;-80
2023/04/02 14:02:25;;;;;;;9.57;2.72;;;;;;;;;;5107215;28;20058;-76
2023/04/02 14:05:24;;;;;;;10.18;2.30;;;;;;;;;;5087127;28;20536;-76
2023/04/02 14:08:34;;;;;;;5.88;1.52;;;;;;;;;;5104249;28;20044;-81
2023/04/02 14:11:38;;;;;;;5.85;1.13;;;;;;;;;;5104002;28;20054;-74
2023/04/02 14:14:38;;;;;;;6.90;1.60;;;;;;;;;;5085680;28;20047;-80
2023/04/02 14:18:47;;;;;;;6.50;1.50;;;;;;;;;;5090324;28;20060;-76
2023/04/02 14:21:39;;;;;;;3.97;1.45;;;;;;;;;;5084302;28;20058;-79
2023/04/02 14:24:31;;;;;;;17.60;1.90;;;;;;;;;;5105928;28;20067;-78
2023/04/02 14:27:38;;;;;;;8.15;2.25;;;;;;;;;;5087381;28;20558;-80
2023/04/02 14:30:51;;;;;;;10.23;1.60;;;;;;;;;;5078966;28;20430;-79
2023/04/02 14:34:07;;;;;;;8.43;1.80;;;;;;;;;;5089892;28;20525;-79
2023/04/02 14:37:50;;;;;;;14.90;2.03;;;;;;;;;;5092877;28;20063;-78
2023/04/02 14:41:08;;;;;;;5.40;1.55;;;;;;;;;;5087499;28;20064;-79
2023/04/02 14:43:58;;;;;;;10.00;1.70;;;;;;;;;;5086208;28;20068;-78
2023/04/02 14:46:30;;;;;;;8.48;1.70;;;;;;;;;;5084000;28;20060;-80
2023/04/02 14:49:24;;;;;;;7.25;1.52;;;;;;;;;;5089511;28;20522;-81
2023/04/02 14:52:06;;;;;;;6.63;1.92;;;;;;;;;;5088395;28;20529;-77
2023/04/02 14:54:53;;;;;;;6.70;1.42;;;;;;;;;;5089826;28;20399;-78
2023/04/02 14:57:29;;;;;;;7.75;1.70;;;;;;;;;;5090027;28;20051;-75
2023/04/02 15:00:19;;;;;;;10.82;1.77;;;;;;;;;;5088815;28;20057;-75
2023/04/02 15:03:17;;;;;;;9.20;1.65;;;;;;;;;;5087952;28;20052;-75
2023/04/02 15:05:56;;;;;;;9.77;1.63;;;;;;;;;;5088884;28;20044;-76
2023/04/02 15:08:44;;;;;;;9.18;2.00;;;;;;;;;;5088687;28;20070;-76
2023/04/02 15:11:50;;;;;;;6.10;1.55;;;;;;;;;;5088212;28;20043;-80
2023/04/02 15:14:55;;;;;;;6.00;1.38;;;;;;;;;;5082597;28;20051;-75
2023/04/02 15:17:42;;;;;;;11.02;1.70;;;;;;;;;;5072865;28;20425;-79
2023/04/02 15:20:16;;;;;;;6.03;1.23;;;;;;;;;;5083516;28;20051;-73
2023/04/02 15:23:22;;;;;;;8.20;1.50;;;;;;;;;;5084030;28;20538;-74
2023/04/02 15:26:09;;;;;;;6.15;1.30;;;;;;;;;;5068595;28;20044;-76
2023/04/02 15:28:52;;;;;;;5.90;1.20;;;;;;;;;;5068837;28;20048;-75
2023/04/02 15:31:27;;;;;;;8.93;1.48;;;;;;;;;;5069044;28;20041;-75
2023/04/02 15:34:31;;;;;;;10.00;1.80;;;;;;;;;;5084463;28;20163;-76
2023/04/02 15:37:19;;;;;;;8.23;1.45;;;;;;;;;;5087546;28;20488;-74
2023/04/02 15:40:27;;;;;;;6.13;1.38;;;;;;;;;;5091449;28;20070;-73
2023/04/02 15:43:36;;;;;;;10.13;1.90;;;;;;;;;;5055593;28;20063;-77
2023/04/02 15:46:09;;;;;;;6.55;1.42;;;;;;;;;;5108950;28;20043;-73
2023/04/02 15:49:28;;;;;;;9.05;1.85;;;;;;;;;;5108012;28;20506;-76
2023/04/02 15:52:07;;;;;;;7.65;1.60;;;;;;;;;;5084479;28;20434;-76
2023/04/02 15:54:41;;;;;;;7.75;1.23;;;;;;;;;;5108935;28;20522;-77
2023/04/02 15:57:39;;;;;;;6.70;1.33;;;;;;;;;;5109086;28;20039;-77
2023/04/02 16:00:13;;;;;;;7.55;1.42;;;;;;;;;;5108950;28;20051;-78
2023/04/02 16:03:19;;;;;;;10.45;1.60;;;;;;;;;;5109973;28;20036;-74
2023/04/02 16:06:17;;;;;;;7.82;1.45;;;;;;;;;;5094808;28;20051;-77